Time;durP1;ratioP1;P1;durP2;ratioP2;P2;SDS_P1;SDS_P2;PMS_P1;PMS_P2;Temp;Humidity;BMP_temperature;BMP_pressure;BME280_temperature;BME280_humidity;BME280_pressure;Samples;Min_cycle;Max_cycle;Signal;HPM_P1;HPM_P2
2022/03/20 06:00:44;;;;;;;25.80;23.13;;;7.20;97.20;;;;;;1721031;28;20728;-71
2022/03/20 06:01:35;;;;;;;26.67;23.88;;;7.20;97.20;;;;;;1721040;28;20212;-71
2022/03/20 06:02:26;;;;;;;27.20;24.30;;;7.20;97.20;;;;;;1721079;28;20208;-71
2022/03/20 06:03:17;;;;;;;25.55;23.08;;;7.20;97.20;;;;;;1719964;28;20228;-71
2022/03/20 06:04:09;;;;;;;24.90;22.40;;;7.20;97.20;;;;;;1716578;28;20196;-71
2022/03/20 06:04:59;;;;;;;29.80;24.95;;;7.30;97.20;;;;;;1721129;28;20684;-71
2022/03/20 06:05:51;;;;;;;25.80;23.20;;;7.30;97.20;;;;;;1721034;28;20602;-71
2022/03/20 06:06:42;;;;;;;27.23;23.88;;;7.30;97.20;;;;;;1721005;28;20201;-71
2022/03/20 06:07:40;;;;;;;27.15;24.35;;;7.30;97.20;;;;;;1721070;28;20213;-71
2022/03/20 06:08:32;;;;;;;26.35;23.75;;;7.30;97.20;;;;;;1720776;28;20229;-71
2022/03/20 06:09:23;;;;;;;27.88;24.98;;;7.30;97.20;;;;;;1720992;28;20687;-71
2022/03/20 06:10:15;;;;;;;27.08;24.38;;;7.30;97.20;;;;;;1720912;28;20209;-71
2022/03/20 06:11:07;;;;;;;27.60;24.80;;;7.30;97.20;;;;;;1720959;28;20216;-71
2022/03/20 06:11:58;;;;;;;27.83;25.02;;;7.30;97.20;;;;;;1720955;28;20217;-71
2022/03/20 06:12:49;;;;;;;30.70;25.90;;;7.40;97.20;;;;;;1720949;28;20290;-71
2022/03/20 06:13:40;;;;;;;27.75;24.95;;;7.40;97.20;;;;;;1717239;28;20194;-71
2022/03/20 06:14:32;;;;;;;28.63;25.73;;;7.40;97.20;;;;;;1714350;28;20668;-71
2022/03/20 06:15:23;;;;;;;28.77;25.88;;;7.40;97.20;;;;;;1714347;28;20225;-71
2022/03/20 06:16:17;;;;;;;27.27;24.60;;;7.40;97.20;;;;;;1714262;28;20205;-71
2022/03/20 06:17:09;;;;;;;28.73;25.48;;;7.40;97.20;;;;;;1714238;28;20449;-71
2022/03/20 06:18:06;;;;;;;27.02;24.33;;;7.50;97.20;;;;;;1714178;28;20205;-71
2022/03/20 06:18:57;;;;;;;29.65;26.58;;;7.50;97.20;;;;;;1714315;28;20212;-71
2022/03/20 06:19:49;;;;;;;27.50;24.92;;;7.50;97.20;;;;;;1714235;28;20209;-71
2022/03/20 06:20:41;;;;;;;27.55;24.83;;;7.50;97.20;;;;;;1714218;28;20287;-70
2022/03/20 06:21:31;;;;;;;28.15;25.15;;;7.50;97.20;;;;;;1714237;28;20213;-71
2022/03/20 06:22:23;;;;;;;28.50;25.57;;;7.60;97.20;;;;;;1714223;28;20205;-71
2022/03/20 06:23:14;;;;;;;26.92;23.20;;;7.60;97.20;;;;;;1714198;28;20232;-71
2022/03/20 06:24:06;;;;;;;28.07;25.20;;;7.70;97.20;;;;;;1714217;28;20212;-71
2022/03/20 06:24:57;;;;;;;28.67;25.63;;;7.70;97.20;;;;;;1714286;28;20452;-70
2022/03/20 06:25:51;;;;;;;28.90;25.97;;;7.70;97.20;;;;;;1718872;28;20197;-71
2022/03/20 06:26:42;;;;;;;29.48;25.33;;;7.70;97.20;;;;;;1720920;28;20212;-71
2022/03/20 06:27:42;;;;;;;29.23;26.43;;;7.70;97.20;;;;;;1720920;28;20233;-71
2022/03/20 06:28:33;;;;;;;27.35;24.65;;;7.70;97.20;;;;;;1720662;28;20452;-70
2022/03/20 06:29:25;;;;;;;28.87;25.77;;;7.70;97.20;;;;;;1720866;28;20518;-71
2022/03/20 06:30:17;;;;;;;30.33;26.45;;;7.70;97.20;;;;;;1720790;28;20240;-71
2022/03/20 06:31:10;;;;;;;27.52;24.58;;;7.70;97.20;;;;;;1720848;28;20203;-70
2022/03/20 06:32:02;;;;;;;28.85;25.85;;;7.70;97.20;;;;;;1720870;28;20631;-70
2022/03/20 06:32:56;;;;;;;29.08;26.15;;;7.70;97.20;;;;;;1720899;28;20683;-71
2022/03/20 06:33:47;;;;;;;29.67;26.77;;;7.80;97.20;;;;;;1716330;28;20205;-71
2022/03/20 06:34:39;;;;;;;28.70;25.70;;;7.80;97.20;;;;;;1714172;28;20610;-71
2022/03/20 06:35:30;;;;;;;28.58;25.55;;;7.80;97.20;;;;;;1714107;28;20244;-71
2022/03/20 06:36:21;;;;;;;28.37;25.57;;;7.80;97.20;;;;;;1714188;28;20206;-70
2022/03/20 06:37:12;;;;;;;28.60;25.70;;;7.80;97.20;;;;;;1714109;28;20716;-71
2022/03/20 06:38:05;;;;;;;28.23;25.33;;;7.80;97.20;;;;;;1713816;28;20675;-71
2022/03/20 06:38:55;;;;;;;28.63;25.73;;;7.80;97.20;;;;;;1714230;28;20210;-71
2022/03/20 06:39:47;;;;;;;27.90;24.93;;;7.80;97.20;;;;;;1714064;28;20206;-71
2022/03/20 06:40:38;;;;;;;29.92;26.83;;;7.80;97.20;;;;;;1714092;28;20509;-71
2022/03/20 06:41:30;;;;;;;29.90;25.83;;;7.90;97.20;;;;;;1714167;28;20197;-70
2022/03/20 06:42:20;;;;;;;29.33;26.38;;;7.90;97.20;;;;;;1714166;28;20995;-71
2022/03/20 06:43:13;;;;;;;27.97;24.97;;;7.90;97.20;;;;;;1714048;28;20603;-71
2022/03/20 06:44:05;;;;;;;28.75;25.75;;;7.90;97.20;;;;;;1714289;28;20229;-71
2022/03/20 06:44:58;;;;;;;30.38;27.27;;;7.90;97.20;;;;;;1714068;28;20571;-71
2022/03/20 06:45:49;;;;;;;31.77;24.70;;;7.90;97.20;;;;;;1714111;28;20293;-70
2022/03/20 06:46:41;;;;;;;28.57;25.73;;;7.90;97.20;;;;;;1714145;28;20202;-71
2022/03/20 06:47:33;;;;;;;30.65;27.52;;;7.90;97.20;;;;;;1714109;28;20653;-70
2022/03/20 06:48:25;;;;;;;30.65;27.35;;;7.90;97.20;;;;;;1713396;28;20210;-71
2022/03/20 06:49:15;;;;;;;30.17;27.27;;;7.90;97.20;;;;;;1713962;28;20217;-71
2022/03/20 06:50:10;;;;;;;29.03;26.23;;;8.00;97.20;;;;;;1714033;28;20198;-71
2022/03/20 06:51:01;;;;;;;29.85;26.88;;;8.00;97.20;;;;;;1714067;28;20261;-71
2022/03/20 06:51:52;;;;;;;30.20;27.08;;;8.10;97.20;;;;;;1714055;28;20680;-71
2022/03/20 06:52:43;;;;;;;29.27;26.25;;;8.20;97.20;;;;;;1714115;28;20233;-71
2022/03/20 06:53:35;;;;;;;29.40;26.40;;;8.20;97.20;;;;;;1715760;28;20194;-71
2022/03/20 06:54:25;;;;;;;30.35;27.08;;;8.30;97.20;;;;;;1720778;28;20480;-71
2022/03/20 06:55:18;;;;;;;29.03;26.13;;;8.40;97.20;;;;;;1720729;28;20208;-70
2022/03/20 06:56:09;;;;;;;28.20;25.50;;;8.40;97.20;;;;;;1720721;28;20570;-71
2022/03/20 06:57:01;;;;;;;28.73;25.93;;;8.50;97.20;;;;;;1720752;28;20535;-71
2022/03/20 06:57:51;;;;;;;30.00;26.90;;;8.60;97.20;;;;;;1720722;28;20228;-71
2022/03/20 06:58:44;;;;;;;32.50;29.10;;;8.70;97.20;;;;;;1720370;28;20207;-71
2022/03/20 06:59:35;;;;;;;29.95;26.77;;;8.80;97.20;;;;;;1720662;28;20201;-71
2022/03/20 07:00:28;;;;;;;29.17;26.27;;;8.90;97.20;;;;;;1720576;28;20205;-71
2022/03/20 07:01:18;;;;;;;28.20;25.40;;;8.90;97.20;;;;;;1720786;28;20673;-71
2022/03/20 07:02:10;;;;;;;29.90;26.80;;;8.90;97.20;;;;;;1720712;28;20542;-71
2022/03/20 07:03:06;;;;;;;29.75;26.70;;;8.90;97.20;;;;;;1720669;28;20220;-71
2022/03/20 07:03:57;;;;;;;30.10;26.90;;;9.00;97.20;;;;;;1715674;28;20219;-71
2022/03/20 07:04:51;;;;;;;29.13;26.23;;;9.00;97.20;;;;;;1713994;28;20285;-71
2022/03/20 07:05:42;;;;;;;28.77;25.80;;;9.00;97.20;;;;;;1713952;28;20586;-71
2022/03/20 07:06:33;;;;;;;29.80;26.88;;;9.10;97.20;;;;;;1714086;28;20209;-72
2022/03/20 07:07:24;;;;;;;30.35;27.35;;;9.20;97.20;;;;;;1713976;28;20205;-71
2022/03/20 07:08:16;;;;;;;29.93;26.80;;;9.20;97.20;;;;;;1713686;28;20281;-71
2022/03/20 07:09:07;;;;;;;28.90;25.90;;;9.30;97.20;;;;;;1713976;28;20201;-71
2022/03/20 07:09:58;;;;;;;30.30;27.20;;;9.30;97.20;;;;;;1713981;28;20201;-71
2022/03/20 07:10:49;;;;;;;28.13;25.20;;;9.30;97.20;;;;;;1713894;28;20260;-71
2022/03/20 07:11:41;;;;;;;28.33;25.53;;;9.30;97.20;;;;;;1714126;28;20190;-71
2022/03/20 07:12:31;;;;;;;29.35;26.25;;;9.40;97.20;;;;;;1714021;28;20198;-71
2022/03/20 07:14:33;;;;;;;28.48;25.67;;;9.40;97.20;;;;;;1714051;28;20506;-71
2022/03/20 07:15:23;;;;;;;34.30;25.55;;;9.50;97.20;;;;;;1713980;28;20248;-71
2022/03/20 07:16:15;;;;;;;28.47;25.67;;;9.50;97.20;;;;;;1714025;28;20206;-71
2022/03/20 07:17:09;;;;;;;28.55;25.75;;;9.50;97.20;;;;;;1713934;28;20237;-71
2022/03/20 07:18:01;;;;;;;27.17;24.48;;;9.50;97.20;;;;;;1713917;28;20217;-71
2022/03/20 07:18:55;;;;;;;29.67;26.63;;;9.60;97.20;;;;;;1713848;28;20233;-71
2022/03/20 07:19:46;;;;;;;29.00;26.10;;;9.60;97.20;;;;;;1713862;28;20206;-71
2022/03/20 07:20:38;;;;;;;28.02;25.20;;;9.70;97.20;;;;;;1713877;28;20228;-71
2022/03/20 07:21:32;;;;;;;27.63;24.77;;;9.70;97.20;;;;;;1713943;28;20228;-71
2022/03/20 07:22:24;;;;;;;29.08;25.88;;;9.70;97.20;;;;;;1713974;28;20202;-70
2022/03/20 07:23:15;;;;;;;27.65;24.85;;;9.70;97.20;;;;;;1713961;28;20241;-70
2022/03/20 07:24:08;;;;;;;29.73;26.70;;;9.70;97.20;;;;;;1719020;28;20201;-71
2022/03/20 07:29:29;;;;;;;30.00;26.90;;;9.70;97.20;;;;;;1720688;28;20200;-71
2022/03/20 07:29:39;;;;;;;28.05;25.30;;;9.80;97.20;;;;;;1720440;28;20200;-71
2022/03/20 07:30:30;;;;;;;28.15;25.35;;;9.90;97.20;;;;;;1720512;28;20386;-70
2022/03/20 07:31:22;;;;;;;27.43;24.77;;;10.00;97.20;;;;;;1720720;28;20205;-71
2022/03/20 07:32:13;;;;;;;27.42;24.58;;;10.00;97.20;;;;;;1720641;28;20236;-71
2022/03/20 07:33:05;;;;;;;28.63;25.92;;;10.10;97.20;;;;;;1720634;28;20682;-71
2022/03/20 07:33:57;;;;;;;27.85;24.95;;;10.20;97.20;;;;;;1716519;28;20318;-70
2022/03/20 07:34:48;;;;;;;27.73;24.90;;;10.20;97.20;;;;;;1713968;28;20646;-70
2022/03/20 07:35:40;;;;;;;26.73;24.03;;;10.30;97.20;;;;;;1713898;28;20585;-71
2022/03/20 07:36:31;;;;;;;28.58;25.40;;;10.40;97.20;;;;;;1713983;28;20441;-70
2022/03/20 07:37:23;;;;;;;29.13;26.23;;;10.40;97.20;;;;;;1713864;28;20662;-70
2022/03/20 07:38:14;;;;;;;28.15;25.17;;;10.50;97.20;;;;;;1713566;28;20464;-71
2022/03/20 07:39:06;;;;;;;28.00;25.25;;;10.50;97.20;;;;;;1713923;28;20198;-71
2022/03/20 07:39:56;;;;;;;27.45;24.80;;;10.60;97.20;;;;;;1713861;28;20248;-71
2022/03/20 07:40:48;;;;;;;27.97;25.10;;;10.70;97.20;;;;;;1713196;28;20284;-70
2022/03/20 07:41:40;;;;;;;28.75;25.60;;;10.80;97.20;;;;;;1713847;28;20236;-70
2022/03/20 07:42:32;;;;;;;28.25;25.42;;;10.80;97.20;;;;;;1713722;28;20206;-70
2022/03/20 07:43:23;;;;;;;28.27;25.45;;;10.90;97.20;;;;;;1713792;28;20214;-71
2022/03/20 07:44:15;;;;;;;29.67;26.57;;;10.90;97.20;;;;;;1719380;28;20202;-71
2022/03/20 07:45:07;;;;;;;29.73;26.73;;;10.90;97.20;;;;;;1720445;28;20922;-71
2022/03/20 07:46:00;;;;;;;28.17;25.10;;;11.00;97.20;;;;;;1720461;28;20288;-71
2022/03/20 07:46:54;;;;;;;28.30;25.30;;;11.00;97.20;;;;;;1720443;28;20215;-71
2022/03/20 07:47:45;;;;;;;28.05;25.30;;;11.10;97.20;;;;;;1720566;28;20219;-70
2022/03/20 07:48:38;;;;;;;27.37;24.53;;;11.20;97.20;;;;;;1720223;28;20676;-71
2022/03/20 07:49:30;;;;;;;28.60;25.80;;;11.20;97.20;;;;;;1720498;28;20479;-71
2022/03/20 07:50:21;;;;;;;28.00;25.10;;;11.30;97.20;;;;;;1720462;28;20627;-71
2022/03/20 07:51:17;;;;;;;28.25;25.50;;;11.30;97.20;;;;;;1720480;28;20210;-71
2022/03/20 07:52:09;;;;;;;27.83;25.13;;;11.30;97.20;;;;;;1720543;28;20567;-71
2022/03/20 07:53:00;;;;;;;28.45;25.55;;;11.20;97.20;;;;;;1720629;28;20201;-70
2022/03/20 07:53:52;;;;;;;28.80;25.85;;;11.30;97.20;;;;;;1717518;28;20239;-70
2022/03/20 07:54:45;;;;;;;28.52;24.85;;;11.30;97.20;;;;;;1713926;28;20202;-71
2022/03/20 07:55:37;;;;;;;26.10;23.40;;;11.30;97.20;;;;;;1713848;28;20202;-70
2022/03/20 07:56:34;;;;;;;26.20;23.55;;;11.30;97.20;;;;;;1713741;28;20206;-71
2022/03/20 07:57:26;;;;;;;28.02;25.13;;;11.40;97.20;;;;;;1713762;28;20276;-71
2022/03/20 07:58:17;;;;;;;28.65;25.85;;;11.50;97.20;;;;;;1713487;28;20685;-70
2022/03/20 07:59:11;;;;;;;27.60;24.90;;;11.60;97.20;;;;;;1713864;28;20198;-71
2022/03/20 08:00:04;;;;;;;26.80;24.13;;;11.60;97.20;;;;;;1713677;28;20239;-71
2022/03/20 08:00:54;;;;;;;27.95;25.05;;;11.70;97.20;;;;;;1714205;28;20237;-70
2022/03/20 08:01:46;;;;;;;28.07;25.27;;;11.80;97.20;;;;;;1714986;28;20289;-71
2022/03/20 08:02:37;;;;;;;30.08;25.65;;;11.90;97.20;;;;;;1715159;28;20198;-71
2022/03/20 08:03:29;;;;;;;29.17;26.03;;;11.90;97.20;;;;;;1714950;28;20205;-71
2022/03/20 08:04:22;;;;;;;27.33;24.42;;;12.00;97.20;;;;;;1715323;28;20232;-71
2022/03/20 08:05:14;;;;;;;28.77;25.80;;;12.10;97.20;;;;;;1715078;28;20661;-71
2022/03/20 08:06:06;;;;;;;28.92;25.83;;;12.10;97.20;;;;;;1715063;28;20244;-71
2022/03/20 08:06:57;;;;;;;28.42;25.48;;;12.20;97.20;;;;;;1715045;28;20280;-71
2022/03/20 08:07:48;;;;;;;29.38;26.42;;;12.30;97.20;;;;;;1717566;28;20571;-71
2022/03/20 08:08:41;;;;;;;30.23;27.13;;;12.30;97.20;;;;;;1721542;28;20231;-71
2022/03/20 08:09:33;;;;;;;28.48;25.58;;;12.30;97.10;;;;;;1721632;28;20266;-70
2022/03/20 08:10:24;;;;;;;28.30;25.38;;;12.40;97.00;;;;;;1721675;28;20501;-71
2022/03/20 08:11:16;;;;;;;28.75;25.27;;;12.40;97.00;;;;;;1721715;28;20907;-71
2022/03/20 08:12:08;;;;;;;28.55;25.67;;;12.40;96.70;;;;;;1721712;28;20229;-71
2022/03/20 08:12:59;;;;;;;27.35;24.75;;;12.40;96.50;;;;;;1721755;28;20205;-71
2022/03/20 08:13:52;;;;;;;29.58;26.67;;;12.40;96.50;;;;;;1721658;28;20235;-71
2022/03/20 08:14:44;;;;;;;29.58;25.73;;;12.50;96.50;;;;;;1721752;28;20197;-71
2022/03/20 08:15:35;;;;;;;28.20;25.25;;;12.50;96.40;;;;;;1721666;28;20209;-71
2022/03/20 08:16:27;;;;;;;29.27;26.15;;;12.50;96.30;;;;;;1721655;28;20609;-71
2022/03/20 08:17:19;;;;;;;29.40;26.23;;;12.60;96.50;;;;;;1721725;28;20668;-71
2022/03/20 08:18:10;;;;;;;28.80;25.85;;;12.60;96.30;;;;;;1716345;28;20202;-71
2022/03/20 08:19:02;;;;;;;29.85;26.33;;;12.60;96.10;;;;;;1714979;28;20281;-71
2022/03/20 08:19:54;;;;;;;28.73;25.75;;;12.70;96.10;;;;;;1714952;28;20209;-71
2022/03/20 08:20:46;;;;;;;29.17;26.15;;;12.70;96.30;;;;;;1714883;28;20225;-70
2022/03/20 08:21:38;;;;;;;29.50;26.55;;;12.80;96.10;;;;;;1715044;28;20213;-71
2022/03/20 08:22:30;;;;;;;27.80;25.10;;;12.80;95.80;;;;;;1714922;28;20617;-70
2022/03/20 08:23:21;;;;;;;27.23;24.48;;;12.80;95.40;;;;;;1715064;28;20202;-71
2022/03/20 08:24:14;;;;;;;26.65;23.65;;;12.90;95.70;;;;;;1714880;28;20234;-70
2022/03/20 08:25:06;;;;;;;26.95;24.15;;;12.90;95.90;;;;;;1715057;28;20275;-71
2022/03/20 08:25:58;;;;;;;32.75;26.75;;;13.00;96.00;;;;;;1715029;28;20280;-71
2022/03/20 08:26:48;;;;;;;28.33;25.40;;;13.00;95.70;;;;;;1714866;28;20221;-71
2022/03/20 08:27:44;;;;;;;27.90;25.00;;;13.10;95.20;;;;;;1714947;28;20212;-71
2022/03/20 08:28:35;;;;;;;28.83;25.20;;;13.10;95.20;;;;;;1714635;28;20205;-70
2022/03/20 08:29:27;;;;;;;28.97;26.20;;;13.20;94.90;;;;;;1714866;28;20292;-71
2022/03/20 08:30:18;;;;;;;26.90;24.27;;;13.30;94.90;;;;;;1714813;28;20451;-72
2022/03/20 08:31:10;;;;;;;28.60;25.77;;;13.30;94.70;;;;;;1714922;28;20261;-70
2022/03/20 08:32:01;;;;;;;27.80;24.80;;;13.30;95.20;;;;;;1714853;28;20221;-71
2022/03/20 08:32:54;;;;;;;27.67;24.77;;;13.40;95.00;;;;;;1714952;28;20208;-70
2022/03/20 08:33:46;;;;;;;27.45;24.85;;;13.40;94.60;;;;;;1714921;28;20998;-71
2022/03/20 08:34:37;;;;;;;27.55;24.77;;;13.40;94.20;;;;;;1714878;28;20202;-71
2022/03/20 08:35:30;;;;;;;28.40;25.40;;;13.50;94.20;;;;;;1714863;28;20202;-71
2022/03/20 08:36:21;;;;;;;27.40;24.42;;;13.50;94.00;;;;;;1714908;28;20456;-71
2022/03/20 08:37:14;;;;;;;27.38;24.48;;;13.50;94.10;;;;;;1714903;28;20733;-71
2022/03/20 08:38:04;;;;;;;27.45;24.85;;;13.50;93.90;;;;;;1715544;28;20193;-71
2022/03/20 08:38:56;;;;;;;27.50;24.80;;;13.50;93.70;;;;;;1714935;28;20293;-71
2022/03/20 08:39:47;;;;;;;28.33;25.42;;;13.60;93.90;;;;;;1714737;28;20245;-71
2022/03/20 08:40:39;;;;;;;26.57;23.97;;;13.60;94.10;;;;;;1714801;28;20217;-71
2022/03/20 08:41:31;;;;;;;28.48;25.67;;;13.70;94.30;;;;;;1714813;28;20241;-71
2022/03/20 08:42:23;;;;;;;27.63;24.85;;;13.80;94.40;;;;;;1714935;28;20846;-71
2022/03/20 08:43:15;;;;;;;26.00;23.38;;;13.90;93.90;;;;;;1714880;28;20240;-70
2022/03/20 08:44:08;;;;;;;26.83;24.20;;;14.00;93.90;;;;;;1714769;28;20240;-71
2022/03/20 08:44:58;;;;;;;28.38;25.55;;;14.00;93.60;;;;;;1714958;28;20237;-71
2022/03/20 08:45:50;;;;;;;27.70;24.90;;;14.10;93.70;;;;;;1714870;28;20213;-71
2022/03/20 08:46:41;;;;;;;27.05;24.25;;;14.10;93.30;;;;;;1714862;28;20237;-70
2022/03/20 08:47:36;;;;;;;26.80;24.20;;;14.20;92.90;;;;;;1714771;28;20200;-71
2022/03/20 08:48:26;;;;;;;27.40;24.65;;;14.20;92.80;;;;;;1720048;28;20313;-71
2022/03/20 08:49:19;;;;;;;25.20;22.70;;;14.40;92.80;;;;;;1721460;28;20411;-72
2022/03/20 08:50:10;;;;;;;27.35;24.38;;;14.40;92.60;;;;;;1721510;28;20292;-71
2022/03/20 08:51:04;;;;;;;27.60;24.70;;;14.50;92.60;;;;;;1721446;28;20236;-71
2022/03/20 08:51:54;;;;;;;26.02;23.50;;;14.70;92.50;;;;;;1721477;28;20218;-71
2022/03/20 08:52:47;;;;;;;26.90;24.20;;;14.80;92.50;;;;;;1721615;28;20215;-71
2022/03/20 08:53:39;;;;;;;27.50;24.80;;;14.90;92.60;;;;;;1721509;28;20205;-71
2022/03/20 08:54:31;;;;;;;26.70;24.00;;;15.10;92.90;;;;;;1721383;28;20252;-71
2022/03/20 08:55:22;;;;;;;28.13;25.35;;;15.20;92.70;;;;;;1721532;28;20247;-71
2022/03/20 08:56:15;;;;;;;25.20;22.70;;;15.30;91.70;;;;;;1721471;28;20201;-71
2022/03/20 08:57:07;;;;;;;27.35;24.48;;;15.50;91.90;;;;;;1714901;28;20208;-71
2022/03/20 08:58:00;;;;;;;26.50;23.80;;;15.70;92.00;;;;;;1716151;28;20205;-71
2022/03/20 08:58:51;;;;;;;25.25;22.75;;;15.80;90.90;;;;;;1719254;28;20289;-71
2022/03/20 08:59:44;;;;;;;26.15;23.55;;;15.90;90.40;;;;;;1717873;28;20205;-71
2022/03/20 09:00:34;;;;;;;26.92;24.05;;;16.00;89.50;;;;;;1714911;28;20626;-71
2022/03/20 09:01:28;;;;;;;26.27;23.57;;;16.20;89.20;;;;;;1719976;28;20522;-71
2022/03/20 09:02:19;;;;;;;27.05;22.38;;;16.60;89.00;;;;;;1716629;28;20608;-71
2022/03/20 09:03:12;;;;;;;26.03;23.53;;;17.10;87.40;;;;;;1718567;28;20614;-75
2022/03/20 09:04:03;;;;;;;25.48;22.85;;;17.50;86.90;;;;;;1719406;28;20289;-73
2022/03/20 09:04:55;;;;;;;25.75;23.25;;;17.80;86.70;;;;;;1715640;28;20582;-73
2022/03/20 09:05:45;;;;;;;26.27;23.75;;;18.40;86.00;;;;;;1721318;28;20236;-73
2022/03/20 09:06:43;;;;;;;27.13;24.37;;;19.40;84.50;;;;;;1721401;28;20208;-73
2022/03/20 09:07:33;;;;;;;26.98;24.33;;;20.50;83.00;;;;;;1721322;28;20197;-73
2022/03/20 09:08:25;;;;;;;26.10;23.63;;;21.70;80.80;;;;;;1716808;28;20198;-73
2022/03/20 09:09:16;;;;;;;25.88;23.25;;;22.80;78.80;;;;;;1716458;28;20213;-73
2022/03/20 09:10:09;;;;;;;25.40;22.93;;;23.80;77.10;;;;;;1714513;28;20229;-73
2022/03/20 09:10:59;;;;;;;23.95;21.65;;;24.60;75.60;;;;;;1716799;28;20249;-73
2022/03/20 09:11:51;;;;;;;26.47;23.97;;;25.50;73.70;;;;;;1720679;28;20194;-73
2022/03/20 09:12:43;;;;;;;24.23;21.83;;;26.20;71.60;;;;;;1721038;28;20624;-73
2022/03/20 09:13:35;;;;;;;24.23;21.92;;;26.80;70.60;;;;;;1714683;28;20642;-73
2022/03/20 09:14:26;;;;;;;24.65;22.25;;;27.40;69.50;;;;;;1714519;28;20289;-73
2022/03/20 09:15:18;;;;;;;23.67;21.43;;;28.10;68.50;;;;;;1714517;28;20201;-73
2022/03/20 09:19:38;;;;;;;23.15;21.05;;;30.70;63.60;;;;;;1721342;28;20640;-73
2022/03/20 09:20:30;;;;;;;25.85;23.45;;;31.20;63.20;;;;;;1721016;28;20247;-73
2022/03/20 09:21:20;;;;;;;22.88;20.77;;;31.50;61.40;;;;;;1721160;28;20232;-73
2022/03/20 09:22:16;;;;;;;22.97;20.83;;;31.80;61.20;;;;;;1721233;28;20205;-74
2022/03/20 09:23:08;;;;;;;24.50;22.10;;;31.90;60.30;;;;;;1721039;28;20225;-72
2022/03/20 09:24:00;;;;;;;23.58;21.38;;;32.10;60.20;;;;;;1721173;28;20216;-71
2022/03/20 09:24:51;;;;;;;21.75;19.80;;;32.30;59.90;;;;;;1720982;28;20248;-72
2022/03/20 09:25:43;;;;;;;23.07;20.93;;;32.70;59.80;;;;;;1721094;28;20221;-72
2022/03/20 09:26:34;;;;;;;22.90;20.83;;;33.10;59.20;;;;;;1720333;28;20645;-73
2022/03/20 09:27:25;;;;;;;23.00;21.00;;;33.40;58.90;;;;;;1721107;28;20596;-72
2022/03/20 09:28:16;;;;;;;24.10;21.80;;;33.80;58.00;;;;;;1720814;28;20208;-73
2022/03/20 09:29:08;;;;;;;22.33;20.13;;;33.90;56.80;;;;;;1721048;28;20197;-74
2022/03/20 09:29:59;;;;;;;22.13;20.10;;;34.20;57.20;;;;;;1721063;28;20225;-74
2022/03/20 09:30:50;;;;;;;22.57;20.57;;;34.40;56.70;;;;;;1720946;28;20213;-74
2022/03/20 09:31:41;;;;;;;22.67;20.65;;;34.60;56.20;;;;;;1721145;28;20560;-73
2022/03/20 09:32:33;;;;;;;22.23;20.17;;;34.90;56.30;;;;;;1721080;28;20217;-74
2022/03/20 09:33:25;;;;;;;21.90;19.88;;;35.10;55.20;;;;;;1721092;28;20472;-74
2022/03/20 09:34:16;;;;;;;22.92;20.67;;;35.30;55.60;;;;;;1720615;28;20255;-72
2022/03/20 09:35:08;;;;;;;22.25;20.35;;;35.50;55.50;;;;;;1721106;28;20200;-72
2022/03/20 09:36:00;;;;;;;21.85;19.85;;;35.70;55.10;;;;;;1721067;28;20248;-72
2022/03/20 09:36:51;;;;;;;22.80;20.75;;;36.00;54.40;;;;;;1720249;28;20580;-74
2022/03/20 09:37:44;;;;;;;22.47;20.47;;;36.20;54.10;;;;;;1721199;28;20223;-74
2022/03/20 09:38:35;;;;;;;22.60;20.67;;;36.50;53.70;;;;;;1720861;28;20228;-74
2022/03/20 09:39:26;;;;;;;20.37;18.57;;;36.80;53.90;;;;;;1721111;28;20323;-74
2022/03/20 09:40:22;;;;;;;21.70;19.80;;;37.20;54.00;;;;;;1721112;28;20209;-74
2022/03/20 09:41:13;;;;;;;22.80;20.75;;;37.60;53.30;;;;;;1721303;28;20217;-74
2022/03/20 09:42:06;;;;;;;21.88;19.73;;;38.10;53.30;;;;;;1721086;28;20731;-74
2022/03/20 09:42:57;;;;;;;22.35;20.25;;;38.50;52.60;;;;;;1721223;28;20279;-73
2022/03/20 09:43:48;;;;;;;23.55;21.48;;;38.80;52.10;;;;;;1721166;28;20233;-74
2022/03/20 09:44:41;;;;;;;22.53;20.63;;;39.20;52.00;;;;;;1721146;28;20229;-74
2022/03/20 09:45:33;;;;;;;22.25;20.05;;;39.40;51.20;;;;;;1721139;28;20201;-74
2022/03/20 09:46:26;;;;;;;20.92;19.02;;;39.70;51.00;;;;;;1720354;28;20201;-74
2022/03/20 09:47:17;;;;;;;21.70;19.80;;;40.00;50.90;;;;;;1721235;28;20212;-75
2022/03/20 09:48:10;;;;;;;22.53;20.43;;;40.30;50.70;;;;;;1720780;28;20459;-75
2022/03/20 09:49:03;;;;;;;21.52;19.75;;;40.30;49.70;;;;;;1721178;28;20201;-74
2022/03/20 09:49:56;;;;;;;21.93;20.03;;;40.60;50.10;;;;;;1721115;28;20201;-74
2022/03/20 09:50:49;;;;;;;22.80;20.80;;;40.90;50.10;;;;;;1720956;28;20476;-74
2022/03/20 09:51:42;;;;;;;23.13;21.13;;;41.00;49.80;;;;;;1721159;28;20464;-74
2022/03/20 09:52:33;;;;;;;22.57;20.63;;;41.20;49.30;;;;;;1721158;28;20448;-75
2022/03/20 09:53:26;;;;;;;23.50;21.30;;;41.30;48.00;;;;;;1721150;28;20954;-72
2022/03/20 09:54:17;;;;;;;23.10;21.00;;;40.90;48.20;;;;;;1721030;28;20228;-73
2022/03/20 09:55:10;;;;;;;23.73;21.40;;;40.80;48.10;;;;;;1720997;28;20440;-73
2022/03/20 09:56:05;;;;;;;22.50;20.60;;;40.20;47.70;;;;;;1721134;28;20444;-73
2022/03/20 09:56:57;;;;;;;23.10;21.30;;;39.90;47.70;;;;;;1715493;28;21015;-73
2022/03/20 09:57:48;;;;;;;23.00;21.03;;;39.80;48.20;;;;;;1714287;28;20492;-73
2022/03/20 09:58:40;;;;;;;26.47;24.10;;;39.80;48.50;;;;;;1714119;28;20456;-73
2022/03/20 09:59:34;;;;;;;24.10;22.00;;;39.70;47.90;;;;;;1714362;28;20206;-73
2022/03/20 10:00:27;;;;;;;23.50;21.43;;;39.80;48.40;;;;;;1714157;28;20449;-73
2022/03/20 10:01:18;;;;;;;22.33;20.30;;;39.70;48.40;;;;;;1714576;28;20461;-73
2022/03/20 10:02:11;;;;;;;24.70;22.50;;;39.80;48.70;;;;;;1714303;28;20984;-73
2022/03/20 10:03:15;;;;;;;24.23;22.13;;;40.10;48.90;;;;;;1714363;28;20799;-73
2022/03/20 10:04:08;;;;;;;24.43;22.27;;;40.50;48.50;;;;;;1717832;28;20448;-73
2022/03/20 10:05:01;;;;;;;23.73;21.60;;;41.00;48.70;;;;;;1721019;28;20539;-73
2022/03/20 10:06:06;;;;;;;22.23;20.10;;;41.40;48.20;;;;;;1721007;28;20978;-73
2022/03/20 10:06:59;;;;;;;24.07;21.77;;;41.10;47.50;;;;;;1716150;28;20830;-73
2022/03/20 10:07:50;;;;;;;23.07;20.97;;;40.30;47.90;;;;;;1714334;28;20557;-73
2022/03/20 10:09:01;;;;;;;25.07;22.87;;;39.20;48.50;;;;;;1714017;28;20879;-74
2022/03/20 10:10:17;;;;;;;23.50;21.43;;;37.10;49.00;;;;;;1714173;28;20445;-73
2022/03/20 10:11:12;;;;;;;24.90;22.80;;;35.00;50.70;;;;;;1714337;28;20445;-73
2022/03/20 10:12:06;;;;;;;23.47;21.47;;;33.40;52.40;;;;;;1714225;28;20445;-73
2022/03/20 10:12:59;;;;;;;26.37;23.90;;;32.10;53.50;;;;;;1714227;28;20462;-73
2022/03/20 10:14:14;;;;;;;24.90;22.40;;;30.80;54.90;;;;;;1714242;28;20467;-73
2022/03/20 10:15:06;;;;;;;23.60;21.57;;;29.30;56.70;;;;;;1714256;28;20953;-73
2022/03/20 10:15:58;;;;;;;23.73;21.37;;;28.20;58.00;;;;;;1714293;28;20441;-73
2022/03/20 10:16:53;;;;;;;24.08;21.92;;;27.40;59.30;;;;;;1717499;28;20479;-72
2022/03/20 10:17:45;;;;;;;24.67;22.58;;;26.80;60.40;;;;;;1720992;28;20235;-72
2022/03/20 10:18:38;;;;;;;25.50;23.00;;;26.20;61.20;;;;;;1720634;28;20204;-72
2022/03/20 10:19:30;;;;;;;27.38;24.88;;;25.70;61.90;;;;;;1720836;28;20201;-72
2022/03/20 10:20:25;;;;;;;25.70;23.42;;;25.60;62.70;;;;;;1720937;28;20228;-73
2022/03/20 10:21:19;;;;;;;23.90;21.75;;;25.30;63.30;;;;;;1720982;28;20231;-72
2022/03/20 10:22:14;;;;;;;24.65;22.45;;;25.10;63.70;;;;;;1720859;28;20216;-72
2022/03/20 10:23:26;;;;;;;25.50;23.08;;;24.80;64.10;;;;;;1719992;28;20213;-72
2022/03/20 10:24:21;;;;;;;26.33;23.83;;;24.40;64.90;;;;;;1720227;28;20208;-72
2022/03/20 10:25:18;;;;;;;25.25;22.90;;;24.10;65.30;;;;;;1720831;28;20264;-72
2022/03/20 10:26:10;;;;;;;25.83;23.13;;;23.80;66.00;;;;;;1720937;28;20668;-72
2022/03/20 10:27:14;;;;;;;23.17;21.00;;;23.40;66.80;;;;;;1715878;28;20248;-72
2022/03/20 10:28:05;;;;;;;23.85;21.40;;;23.20;67.70;;;;;;1713813;28;20206;-72
2022/03/20 10:28:56;;;;;;;23.90;21.60;;;23.00;68.20;;;;;;1714208;28;20692;-72
2022/03/20 10:29:53;;;;;;;24.13;21.73;;;22.90;68.60;;;;;;1714124;28;20661;-72
2022/03/20 10:30:55;;;;;;;24.40;22.10;;;22.70;68.90;;;;;;1714135;28;20218;-72
2022/03/20 10:31:51;;;;;;;23.70;21.23;;;22.50;69.50;;;;;;1714182;28;20198;-72
2022/03/20 10:32:49;;;;;;;23.25;20.98;;;22.40;69.80;;;;;;1714200;28;20229;-72
2022/03/20 10:33:41;;;;;;;23.00;20.88;;;22.40;70.10;;;;;;1714166;28;20289;-73
2022/03/20 10:34:47;;;;;;;22.70;20.40;;;22.40;70.40;;;;;;1714083;28;20264;-73
2022/03/20 10:35:39;;;;;;;24.15;21.80;;;22.70;70.40;;;;;;1714225;28;20672;-72
2022/03/20 10:36:33;;;;;;;22.65;20.52;;;23.50;70.10;;;;;;1714279;28;20236;-72